Time;durP1;ratioP1;P1;durP2;ratioP2;P2;SDS_P1;SDS_P2;PMS_P1;PMS_P2;Temp;Humidity;BMP_temperature;BMP_pressure;BME280_temperature;BME280_humidity;BME280_pressure;Samples;Min_cycle;Max_cycle;Signal;HPM_P1;HPM_P2
2021/07/04 00:01:07;;;;;;;12.93;9.75;;;18.20;99.90;;;;;;5110550;28;20126;-74
2021/07/04 00:03:32;;;;;;;15.43;9.50;;;18.20;99.90;;;;;;5111699;28;20042;-73
2021/07/04 00:05:58;;;;;;;14.38;10.50;;;18.10;99.90;;;;;;5113995;28;20441;-73
2021/07/04 00:08:25;;;;;;;14.48;10.07;;;18.10;99.90;;;;;;5114269;28;20084;-73
2021/07/04 00:11:00;;;;;;;16.67;10.43;;;18.00;99.90;;;;;;5114365;28;20418;-73
2021/07/04 00:13:28;;;;;;;13.68;9.15;;;18.00;99.90;;;;;;5114363;28;20417;-73
2021/07/04 00:15:54;;;;;;;15.15;9.77;;;18.00;99.90;;;;;;5114332;28;20043;-73
2021/07/04 00:18:24;;;;;;;21.27;10.98;;;18.00;99.90;;;;;;5114709;28;20084;-73
2021/07/04 00:20:50;;;;;;;15.38;9.85;;;17.90;99.90;;;;;;5114179;28;20113;-72
2021/07/04 00:23:16;;;;;;;13.07;9.57;;;17.90;99.90;;;;;;5114267;28;20042;-73
2021/07/04 00:25:44;;;;;;;19.50;10.10;;;17.80;99.90;;;;;;5114021;28;20028;-73
2021/07/04 00:28:10;;;;;;;15.05;10.07;;;17.80;99.90;;;;;;5113075;28;20071;-73
2021/07/04 00:30:36;;;;;;;14.00;9.18;;;17.70;99.90;;;;;;5113738;28;20020;-73
2021/07/04 00:33:02;;;;;;;17.63;10.88;;;17.70;99.90;;;;;;5114500;28;20030;-73
2021/07/04 00:35:28;;;;;;;16.05;10.80;;;17.70;99.90;;;;;;5114099;28;20027;-73
2021/07/04 00:37:54;;;;;;;16.38;9.85;;;17.80;99.90;;;;;;5113967;28;20123;-73
2021/07/04 00:40:22;;;;;;;11.82;9.48;;;17.70;99.90;;;;;;5112694;28;20488;-73
2021/07/04 00:42:47;;;;;;;14.45;10.30;;;17.80;99.90;;;;;;5113689;28;20107;-73
2021/07/04 00:45:19;;;;;;;13.52;9.43;;;17.70;99.90;;;;;;5114064;28;20107;-73
2021/07/04 00:47:46;;;;;;;14.63;9.60;;;17.70;99.90;;;;;;5112788;28;20027;-72
2021/07/04 00:50:13;;;;;;;13.93;9.90;;;17.70;99.90;;;;;;5113629;27;20393;-73
2021/07/04 00:52:40;;;;;;;16.70;9.73;;;17.70;99.90;;;;;;5113561;28;20036;-72
2021/07/04 00:55:08;;;;;;;15.38;9.85;;;17.70;99.90;;;;;;5113239;28;20055;-73
2021/07/04 00:57:34;;;;;;;15.23;9.57;;;17.60;99.90;;;;;;5113053;28;20027;-72
2021/07/04 01:00:00;;;;;;;18.27;10.02;;;17.60;99.90;;;;;;5111770;28;20040;-73
2021/07/04 01:02:30;;;;;;;17.55;10.25;;;17.50;99.90;;;;;;5113148;28;20084;-72
2021/07/04 01:04:55;;;;;;;16.05;9.75;;;17.50;99.90;;;;;;5113354;28;20020;-73
2021/07/04 01:07:22;;;;;;;14.38;9.73;;;17.50;99.90;;;;;;5113305;27;20027;-73
2021/07/04 01:09:48;;;;;;;13.73;10.07;;;17.50;99.90;;;;;;5113086;28;20110;-73
2021/07/04 01:12:13;;;;;;;18.63;10.50;;;17.50;99.90;;;;;;5112605;28;20110;-73
2021/07/04 01:14:39;;;;;;;14.00;9.85;;;17.50;99.90;;;;;;5112160;28;20028;-73
2021/07/04 01:17:05;;;;;;;13.57;9.30;;;17.50;99.90;;;;;;5111755;28;20357;-73
2021/07/04 01:19:31;;;;;;;13.20;9.63;;;17.50;99.90;;;;;;5113127;28;20081;-73
2021/07/04 01:21:58;;;;;;;14.52;10.13;;;17.40;99.90;;;;;;5112993;27;20028;-72
2021/07/04 01:24:25;;;;;;;12.68;9.50;;;17.40;99.90;;;;;;5113400;27;20016;-73
2021/07/04 01:26:51;;;;;;;12.98;9.65;;;17.40;99.90;;;;;;5112844;28;20024;-73
2021/07/04 01:29:17;;;;;;;13.95;9.77;;;17.40;99.90;;;;;;5112896;28;20465;-73
2021/07/04 01:31:44;;;;;;;16.17;10.15;;;17.40;99.90;;;;;;5112600;27;20403;-73
2021/07/04 01:34:09;;;;;;;16.55;10.05;;;17.40;99.90;;;;;;5112614;28;20491;-73
2021/07/04 01:36:37;;;;;;;14.23;9.30;;;17.30;99.90;;;;;;5127637;27;20106;-72
2021/07/04 01:39:04;;;;;;;;;;;17.40;99.90;;;;;;5133896;27;20050;-71
2021/07/04 01:41:29;;;;;;;12.52;8.90;;;17.30;99.90;;;;;;5132939;27;19915;-72
2021/07/04 01:43:55;;;;;;;14.00;9.50;;;17.30;99.90;;;;;;5132946;27;20027;-73
2021/07/04 01:46:23;;;;;;;12.85;8.48;;;17.20;99.90;;;;;;5133048;27;20191;-73
2021/07/04 01:48:49;;;;;;;12.75;9.05;;;17.20;99.90;;;;;;5133045;27;20677;-73
2021/07/04 01:51:15;;;;;;;15.02;9.70;;;17.30;99.90;;;;;;5133251;27;20059;-73
2021/07/04 01:53:40;;;;;;;14.57;9.07;;;17.20;99.90;;;;;;5132907;27;20019;-72
2021/07/04 01:56:07;;;;;;;13.98;9.75;;;17.20;99.90;;;;;;5132130;27;20038;-73
2021/07/04 01:58:36;;;;;;;15.70;9.52;;;17.20;99.90;;;;;;5132680;27;20027;-72
2021/07/04 02:01:04;;;;;;;13.52;8.65;;;17.00;99.90;;;;;;5133009;27;20035;-72
2021/07/04 02:03:30;;;;;;;;;;;17.10;99.90;;;;;;5133168;27;20018;-72
2021/07/04 02:05:57;;;;;;;13.98;9.43;;;17.00;99.90;;;;;;5133158;27;19899;-72
2021/07/04 02:08:23;;;;;;;14.60;9.07;;;17.00;99.90;;;;;;5131443;27;20042;-72
2021/07/04 02:10:48;;;;;;;14.85;9.82;;;16.90;99.90;;;;;;5132420;27;20068;-73
2021/07/04 02:13:14;;;;;;;12.57;9.43;;;16.90;99.90;;;;;;5132238;27;20377;-71
2021/07/04 02:15:40;;;;;;;11.68;8.77;;;16.90;99.90;;;;;;5132550;27;20102;-72
2021/07/04 02:18:13;;;;;;;13.80;8.90;;;16.90;99.90;;;;;;5132807;27;20023;-72
2021/07/04 02:20:44;;;;;;;12.38;8.88;;;16.90;99.90;;;;;;5132363;27;20031;-72
2021/07/04 02:23:14;;;;;;;15.10;9.32;;;16.90;99.90;;;;;;5132089;27;20046;-72
2021/07/04 02:25:42;;;;;;;18.00;10.30;;;16.80;99.90;;;;;;5132216;27;20039;-72
2021/07/04 02:28:09;;;;;;;18.33;10.65;;;16.80;99.90;;;;;;5132146;27;20034;-72
2021/07/04 02:30:36;;;;;;;12.70;9.53;;;16.80;99.90;;;;;;5132070;27;20027;-73
2021/07/04 02:33:06;;;;;;;13.63;9.35;;;16.80;99.90;;;;;;5131578;27;20024;-72
2021/07/04 02:35:34;;;;;;;15.90;10.48;;;16.80;99.90;;;;;;5132406;27;20524;-73
2021/07/04 02:38:00;;;;;;;15.50;9.85;;;16.80;99.90;;;;;;5130764;27;20046;-72
2021/07/04 02:40:27;;;;;;;12.88;9.77;;;16.90;99.90;;;;;;5132075;27;20053;-73
2021/07/04 02:42:53;;;;;;;16.15;10.90;;;16.90;99.90;;;;;;5132027;27;20062;-73
2021/07/04 02:45:19;;;;;;;16.75;10.15;;;16.90;99.90;;;;;;5132380;27;20055;-74
2021/07/04 02:47:45;;;;;;;14.02;10.75;;;16.90;99.90;;;;;;5131718;27;20099;-73
2021/07/04 02:50:11;;;;;;;15.20;10.00;;;17.00;99.90;;;;;;5131665;27;20038;-73
2021/07/04 02:52:38;;;;;;;13.95;10.27;;;16.90;99.90;;;;;;5131899;27;20031;-72
2021/07/04 02:55:08;;;;;;;17.98;10.27;;;16.90;99.90;;;;;;5131420;27;20027;-73
2021/07/04 02:57:33;;;;;;;14.57;9.93;;;17.00;99.90;;;;;;5131524;27;20449;-73
2021/07/04 02:59:59;;;;;;;15.73;9.57;;;16.90;99.90;;;;;;5131892;27;20069;-73
2021/07/04 03:02:26;;;;;;;13.20;9.93;;;17.00;99.90;;;;;;5131800;27;20031;-72
2021/07/04 03:04:52;;;;;;;18.58;9.55;;;16.90;99.90;;;;;;5131434;27;20662;-74
2021/07/04 03:07:18;;;;;;;12.75;9.57;;;17.00;99.90;;;;;;5131855;27;20031;-73
2021/07/04 03:09:44;;;;;;;12.00;9.52;;;16.90;99.90;;;;;;5131468;27;20021;-74
2021/07/04 03:12:10;;;;;;;13.30;9.18;;;16.90;99.90;;;;;;5131951;27;20023;-74
2021/07/04 03:14:38;;;;;;;14.10;8.90;;;16.80;99.90;;;;;;5131216;27;20034;-74
2021/07/04 03:17:04;;;;;;;15.07;8.85;;;16.80;99.90;;;;;;5131147;27;20457;-72
2021/07/04 03:19:30;;;;;;;13.52;9.60;;;16.90;99.90;;;;;;5130439;27;20038;-72
2021/07/04 03:21:55;;;;;;;13.95;9.07;;;16.80;99.90;;;;;;5131350;27;20035;-72
2021/07/04 03:24:21;;;;;;;15.60;9.73;;;16.80;99.90;;;;;;5131571;27;20027;-73
2021/07/04 03:26:46;;;;;;;16.05;10.02;;;16.80;99.90;;;;;;5131317;27;20050;-72
2021/07/04 03:29:12;;;;;;;15.32;9.32;;;16.70;99.90;;;;;;5130155;27;20380;-72
2021/07/04 03:31:38;;;;;;;15.27;8.65;;;16.70;99.90;;;;;;5131369;27;20094;-73
2021/07/04 03:34:04;;;;;;;11.98;9.30;;;16.70;99.90;;;;;;5131335;27;20467;-73
2021/07/04 03:36:29;;;;;;;12.52;9.00;;;16.70;99.90;;;;;;5131217;27;20071;-72
2021/07/04 03:38:55;;;;;;;15.05;9.30;;;16.70;99.90;;;;;;5133506;27;20136;-72
2021/07/04 03:41:20;;;;;;;20.38;9.98;;;16.70;99.90;;;;;;5135440;27;20481;-73
2021/07/04 03:43:46;;;;;;;11.98;9.38;;;16.70;99.90;;;;;;5135582;27;20464;-72
2021/07/04 03:46:12;;;;;;;13.80;8.98;;;16.70;99.90;;;;;;5135498;27;20043;-72
2021/07/04 03:48:37;;;;;;;17.05;9.25;;;16.80;99.90;;;;;;5135261;27;20023;-73
2021/07/04 03:51:03;;;;;;;11.45;8.57;;;16.70;99.90;;;;;;5135789;27;20081;-74
2021/07/04 03:53:28;;;;;;;17.70;10.63;;;16.70;99.90;;;;;;5135185;27;20433;-73
2021/07/04 03:55:54;;;;;;;10.85;8.25;;;16.80;99.90;;;;;;5135231;27;20050;-72
2021/07/04 03:58:20;;;;;;;13.30;8.80;;;16.80;99.90;;;;;;5135118;27;20460;-73
2021/07/04 04:00:45;;;;;;;15.00;9.05;;;16.80;99.90;;;;;;5135312;27;20026;-73
2021/07/04 04:03:11;;;;;;;16.25;9.48;;;16.90;99.90;;;;;;5135327;27;20472;-72
2021/07/04 04:05:36;;;;;;;16.30;8.85;;;16.90;99.90;;;;;;5134892;27;20480;-72
2021/07/04 04:08:06;;;;;;;11.65;8.23;;;17.00;99.90;;;;;;5134769;27;20024;-73
2021/07/04 04:10:31;;;;;;;10.85;8.73;;;17.00;99.90;;;;;;5133657;27;20023;-72
2021/07/04 04:12:57;;;;;;;14.90;8.45;;;17.00;99.90;;;;;;5134562;27;20397;-71
2021/07/04 04:15:22;;;;;;;14.60;8.88;;;17.00;99.90;;;;;;5135474;27;20039;-72
2021/07/04 04:17:48;;;;;;;11.80;8.38;;;17.00;99.90;;;;;;5134792;27;20031;-73
2021/07/04 04:20:14;;;;;;;14.63;8.82;;;17.10;99.90;;;;;;5134626;27;20578;-72
2021/07/04 04:22:40;;;;;;;13.60;9.20;;;17.10;99.90;;;;;;5133550;27;20553;-72
2021/07/04 04:25:06;;;;;;;15.82;9.38;;;17.20;99.90;;;;;;5134415;27;20028;-73
2021/07/04 04:27:31;;;;;;;12.88;8.35;;;17.20;99.90;;;;;;5134501;27;20046;-73
2021/07/04 04:29:57;;;;;;;11.52;8.63;;;17.30;99.90;;;;;;5135034;27;20023;-73
2021/07/04 04:32:23;;;;;;;15.45;8.80;;;17.30;99.90;;;;;;5134470;27;20480;-73
2021/07/04 04:34:48;;;;;;;10.93;8.38;;;17.40;99.90;;;;;;5134471;27;20114;-72
2021/07/04 04:37:14;;;;;;;11.40;7.65;;;17.40;99.90;;;;;;5133216;27;20115;-74
2021/07/04 04:39:40;;;;;;;10.25;7.63;;;17.50;99.90;;;;;;5134080;27;20043;-73
2021/07/04 04:42:05;;;;;;;11.32;7.55;;;17.50;99.90;;;;;;5133597;27;20050;-73
2021/07/04 04:44:31;;;;;;;11.98;8.25;;;17.50;99.90;;;;;;5134562;27;20027;-74
2021/07/04 04:46:57;;;;;;;10.13;7.93;;;17.60;99.90;;;;;;5134715;27;20058;-73
2021/07/04 04:49:22;;;;;;;12.40;8.20;;;17.60;99.90;;;;;;5134111;27;20027;-74
2021/07/04 04:51:48;;;;;;;14.30;8.02;;;17.60;99.90;;;;;;5134175;27;20057;-74
2021/07/04 04:54:13;;;;;;;12.45;8.02;;;17.70;99.90;;;;;;5134559;27;20019;-72
2021/07/04 04:56:39;;;;;;;10.63;7.78;;;17.70;99.90;;;;;;5133962;27;20031;-73
2021/07/04 04:59:04;;;;;;;11.73;7.78;;;17.80;99.90;;;;;;5133980;27;20027;-73
2021/07/04 05:01:30;;;;;;;12.07;8.52;;;17.80;99.90;;;;;;5133878;27;20043;-73
2021/07/04 05:03:56;;;;;;;12.60;7.65;;;17.80;99.90;;;;;;5133971;27;20046;-74
2021/07/04 05:06:22;;;;;;;10.43;7.68;;;17.80;99.90;;;;;;5134464;27;20352;-74
2021/07/04 05:08:48;;;;;;;11.65;8.32;;;17.80;99.90;;;;;;5133808;27;20093;-73
2021/07/04 05:11:14;;;;;;;13.32;7.47;;;17.90;99.90;;;;;;5133673;27;20128;-73
2021/07/04 05:13:40;;;;;;;13.20;7.75;;;17.90;99.90;;;;;;5133851;27;20035;-74
2021/07/04 05:16:06;;;;;;;10.35;7.93;;;17.90;99.90;;;;;;5133358;27;20039;-74
2021/07/04 05:18:32;;;;;;;11.77;7.95;;;18.00;99.90;;;;;;5133852;27;20690;-73
2021/07/04 05:20:58;;;;;;;15.82;8.55;;;18.00;99.90;;;;;;5133945;27;20102;-72
2021/07/04 05:23:24;;;;;;;15.52;7.85;;;18.10;99.90;;;;;;5133871;27;20464;-72
2021/07/04 05:25:50;;;;;;;12.82;7.78;;;18.10;99.90;;;;;;5132375;27;20114;-73
2021/07/04 05:28:19;;;;;;;11.50;8.05;;;18.10;99.90;;;;;;5133588;27;20112;-74
2021/07/04 05:30:45;;;;;;;10.77;7.85;;;18.20;99.90;;;;;;5132213;27;20028;-75
2021/07/04 05:33:11;;;;;;;10.90;7.90;;;18.20;99.90;;;;;;5132515;27;20046;-72
2021/07/04 05:35:39;;;;;;;9.48;7.28;;;18.20;99.90;;;;;;5133264;27;20053;-74
2021/07/04 05:38:05;;;;;;;15.70;8.43;;;18.30;99.90;;;;;;5133549;27;20039;-72
2021/07/04 05:40:31;;;;;;;9.90;6.97;;;18.40;99.90;;;;;;5132826;27;20047;-72
2021/07/04 05:42:56;;;;;;;16.35;7.78;;;18.30;99.90;;;;;;5132834;27;20368;-72
2021/07/04 05:45:26;;;;;;;12.60;7.72;;;18.40;99.90;;;;;;5133354;27;20052;-72
2021/07/04 05:47:52;;;;;;;7.72;6.82;;;18.50;99.90;;;;;;5133243;27;20042;-73
2021/07/04 05:50:19;;;;;;;10.77;7.45;;;18.50;99.90;;;;;;5132079;27;20108;-73
2021/07/04 05:52:46;;;;;;;16.92;7.95;;;18.50;99.90;;;;;;5131619;27;20054;-74
2021/07/04 05:55:12;;;;;;;8.80;6.72;;;18.60;99.90;;;;;;5133093;27;20478;-73
2021/07/04 05:57:38;;;;;;;8.98;7.05;;;18.60;99.90;;;;;;5132900;27;20019;-72
2021/07/04 06:00:07;;;;;;;14.35;7.18;;;18.60;99.90;;;;;;5133563;27;20023;-76
2021/07/04 06:02:32;;;;;;;10.35;7.70;;;18.70;99.90;;;;;;5132309;27;20031;-74
2021/07/04 06:04:58;;;;;;;11.77;7.63;;;18.70;99.90;;;;;;5132718;27;20484;-74
2021/07/04 06:07:24;;;;;;;10.75;7.70;;;18.70;99.90;;;;;;5132637;27;20417;-73
2021/07/04 06:09:49;;;;;;;12.45;7.03;;;18.70;99.90;;;;;;5132622;27;20027;-74
2021/07/04 06:12:15;;;;;;;11.77;6.95;;;18.80;99.90;;;;;;5133137;27;20025;-73
2021/07/04 06:14:40;;;;;;;8.75;6.63;;;18.80;99.90;;;;;;5132520;27;20023;-71
2021/07/04 06:17:06;;;;;;;14.02;7.82;;;18.80;99.90;;;;;;5132606;27;20028;-74
2021/07/04 06:19:32;;;;;;;9.70;6.75;;;18.90;99.90;;;;;;5131397;27;20043;-74
2021/07/04 06:21:57;;;;;;;17.10;7.50;;;19.00;99.90;;;;;;5132215;27;20047;-75
2021/07/04 06:24:23;;;;;;;10.80;7.28;;;19.00;99.90;;;;;;5131799;27;20027;-73
2021/07/04 06:26:49;;;;;;;9.07;6.85;;;19.00;99.90;;;;;;5131648;27;20023;-73
2021/07/04 06:29:15;;;;;;;13.57;6.72;;;19.00;99.90;;;;;;5132555;27;20084;-74
2021/07/04 06:31:40;;;;;;;10.80;7.50;;;19.10;99.90;;;;;;5132356;27;20026;-75
2021/07/04 06:34:06;;;;;;;16.45;9.45;;;19.20;99.90;;;;;;5132268;27;20086;-74
2021/07/04 06:36:31;;;;;;;14.77;9.35;;;19.20;99.90;;;;;;5132081;27;20023;-76
2021/07/04 06:38:57;;;;;;;12.63;8.60;;;19.20;99.90;;;;;;5132437;27;20047;-73
2021/07/04 06:41:24;;;;;;;12.77;7.97;;;19.20;99.90;;;;;;5132011;27;20445;-75
2021/07/04 06:43:52;;;;;;;12.85;8.27;;;19.20;99.90;;;;;;5132050;27;20376;-74
2021/07/04 06:46:17;;;;;;;15.73;7.82;;;19.20;99.90;;;;;;5132312;27;20031;-73
2021/07/04 06:48:43;;;;;;;15.88;9.18;;;19.40;99.90;;;;;;5131925;27;20039;-73
2021/07/04 06:51:09;;;;;;;17.25;9.38;;;19.40;99.90;;;;;;5132287;27;20675;-73
2021/07/04 06:53:35;;;;;;;15.13;6.95;;;19.50;99.90;;;;;;5131789;27;20611;-73
2021/07/04 06:56:00;;;;;;;9.57;6.55;;;19.50;99.90;;;;;;5130570;27;20343;-74
2021/07/04 06:58:26;;;;;;;19.58;8.23;;;19.50;99.90;;;;;;5131927;27;20126;-73
2021/07/04 07:00:52;;;;;;;11.48;6.90;;;19.60;99.90;;;;;;5131856;27;20035;-72
2021/07/04 07:03:18;;;;;;;9.75;6.43;;;19.70;99.90;;;;;;5131056;27;20158;-73
2021/07/04 07:05:44;;;;;;;10.68;6.88;;;19.80;99.90;;;;;;5131674;27;20027;-74
2021/07/04 07:08:09;;;;;;;11.10;7.00;;;19.80;99.90;;;;;;5131510;27;20039;-74
2021/07/04 07:10:36;;;;;;;12.25;6.53;;;19.90;99.90;;;;;;5131443;27;20067;-72
2021/07/04 07:13:05;;;;;;;15.90;6.75;;;19.90;99.90;;;;;;5130674;27;20034;-72
2021/07/04 07:15:30;;;;;;;10.00;6.20;;;20.00;99.90;;;;;;5130513;27;20015;-72
2021/07/04 07:17:56;;;;;;;13.63;6.88;;;20.10;99.90;;;;;;5131995;27;20019;-72
2021/07/04 07:20:22;;;;;;;9.98;6.85;;;20.10;99.90;;;;;;5131501;27;20389;-70
2021/07/04 07:22:47;;;;;;;9.95;7.05;;;20.20;99.90;;;;;;5130578;27;20043;-71
2021/07/04 07:25:14;;;;;;;14.23;10.95;;;20.30;99.90;;;;;;5130704;27;20658;-71
2021/07/04 07:27:39;;;;;;;12.00;7.75;;;20.40;99.90;;;;;;5130912;27;20027;-73
2021/07/04 07:30:08;;;;;;;12.48;7.60;;;20.40;99.90;;;;;;5131670;27;20342;-72
2021/07/04 07:32:35;;;;;;;10.68;6.60;;;20.60;99.90;;;;;;5130234;28;20036;-71
2021/07/04 07:35:06;;;;;;;12.83;7.10;;;20.70;99.70;;;;;;5131388;27;20035;-71
2021/07/04 07:37:31;;;;;;;12.82;6.97;;;20.70;99.70;;;;;;5131124;27;20035;-72
2021/07/04 07:39:57;;;;;;;12.15;7.10;;;20.90;99.80;;;;;;5130666;27;20083;-72
2021/07/04 07:42:22;;;;;;;14.32;10.13;;;21.00;99.60;;;;;;5130353;27;20030;-72
2021/07/04 07:44:48;;;;;;;26.95;14.82;;;21.00;99.30;;;;;;5130979;27;20077;-70
2021/07/04 07:47:14;;;;;;;13.50;10.23;;;21.00;99.40;;;;;;5131119;27;20043;-71
2021/07/04 07:49:40;;;;;;;10.80;8.25;;;21.10;99.40;;;;;;5131021;27;20038;-72
2021/07/04 07:52:06;;;;;;;10.48;7.80;;;21.20;99.40;;;;;;5116540;27;20026;-70
2021/07/04 07:54:31;;;;;;;10.70;7.88;;;21.20;99.10;;;;;;5110319;28;20070;-71
2021/07/04 07:56:57;;;;;;;9.43;7.55;;;21.40;99.40;;;;;;5110834;28;20055;-71
2021/07/04 07:59:23;;;;;;;14.90;7.93;;;21.50;99.20;;;;;;5108424;28;20028;-71
2021/07/04 08:01:49;;;;;;;13.05;8.15;;;21.60;99.00;;;;;;5110464;28;20051;-71
2021/07/04 08:04:15;;;;;;;10.57;8.15;;;21.60;98.60;;;;;;5109998;28;20043;-71
2021/07/04 08:06:40;;;;;;;12.50;7.75;;;21.70;98.50;;;;;;5109943;28;20032;-71
2021/07/04 08:09:06;;;;;;;11.85;8.18;;;21.80;98.50;;;;;;5110670;28;20107;-72
2021/07/04 08:11:32;;;;;;;14.48;9.20;;;22.00;98.50;;;;;;5110248;28;20028;-71
2021/07/04 08:13:58;;;;;;;14.52;8.10;;;22.00;98.40;;;;;;5110109;28;20054;-70
2021/07/04 08:16:24;;;;;;;13.88;8.13;;;22.10;98.60;;;;;;5110248;28;20119;-72
2021/07/04 08:18:50;;;;;;;15.68;8.65;;;22.10;98.50;;;;;;5109958;28;20123;-72
2021/07/04 08:21:15;;;;;;;11.40;7.82;;;22.30;98.30;;;;;;5110753;28;20096;-73
2021/07/04 08:23:41;;;;;;;13.95;8.60;;;22.40;98.20;;;;;;5110060;28;20032;-72
2021/07/04 08:26:07;;;;;;;11.50;8.40;;;22.50;98.10;;;;;;5113603;28;20027;-73
2021/07/04 08:28:33;;;;;;;11.52;8.57;;;22.60;97.70;;;;;;5112674;28;20042;-77
2021/07/04 08:30:58;;;;;;;11.95;8.73;;;22.90;97.70;;;;;;5113838;28;20028;-75
2021/07/04 08:33:24;;;;;;;13.82;8.48;;;23.30;97.00;;;;;;5113936;28;20487;-77
2021/07/04 08:35:50;;;;;;;10.98;8.07;;;23.90;96.30;;;;;;5113490;27;20032;-77
2021/07/04 08:38:15;;;;;;;12.70;7.88;;;24.30;95.90;;;;;;5113689;28;20027;-72
2021/07/04 08:40:41;;;;;;;11.05;7.43;;;24.70;95.40;;;;;;5113536;28;20583;-74
2021/07/04 08:43:07;;;;;;;9.70;7.10;;;25.50;95.50;;;;;;5112783;28;20043;-74
2021/07/04 08:45:37;;;;;;;11.80;7.85;;;26.00;93.90;;;;;;5113636;28;20449;-73
2021/07/04 08:48:04;;;;;;;10.40;6.75;;;26.30;93.20;;;;;;5114049;28;20346;-72
2021/07/04 08:50:30;;;;;;;9.23;6.37;;;26.50;92.80;;;;;;5112149;28;20042;-74
2021/07/04 08:52:59;;;;;;;8.75;6.75;;;26.50;92.60;;;;;;5113420;28;20027;-71
2021/07/04 08:55:24;;;;;;;10.50;6.90;;;26.70;91.90;;;;;;5113430;28;20044;-71
2021/07/04 08:57:50;;;;;;;10.48;6.63;;;26.10;92.00;;;;;;5113516;28;20055;-70
2021/07/04 09:00:17;;;;;;;10.05;7.15;;;26.00;92.00;;;;;;5113671;28;20020;-69
2021/07/04 09:02:42;;;;;;;8.88;6.90;;;25.70;92.00;;;;;;5113130;28;20093;-70
2021/07/04 09:05:11;;;;;;;14.18;9.13;;;25.50;92.50;;;;;;5113133;28;20039;-70
2021/07/04 09:07:38;;;;;;;9.77;7.97;;;25.30;92.90;;;;;;5113331;28;20046;-73
2021/07/04 09:10:10;;;;;;;23.15;15.77;;;25.40;93.00;;;;;;5113053;28;20047;-71
2021/07/04 09:12:41;;;;;;;12.00;8.55;;;25.50;92.50;;;;;;5112814;28;20039;-72
2021/07/04 09:15:09;;;;;;;10.65;7.10;;;25.60;92.60;;;;;;5113503;28;20028;-72
2021/07/04 09:17:37;;;;;;;8.68;6.30;;;25.80;92.30;;;;;;5113181;27;20426;-71
2021/07/04 09:20:11;;;;;;;9.25;7.40;;;25.90;92.10;;;;;;5112783;28;20093;-71
2021/07/04 09:22:40;;;;;;;11.68;7.55;;;26.00;92.10;;;;;;5112986;28;20040;-71
2021/07/04 09:25:09;;;;;;;19.38;14.45;;;25.90;91.50;;;;;;5112597;28;20042;-72
2021/07/04 09:27:35;;;;;;;13.93;10.30;;;25.60;91.50;;;;;;5112841;28;20057;-71
2021/07/04 09:30:02;;;;;;;10.57;6.43;;;25.80;91.90;;;;;;5113174;28;20379;-72
2021/07/04 09:32:29;;;;;;;10.18;6.75;;;26.00;90.90;;;;;;5112517;28;20043;-72
2021/07/04 09:34:57;;;;;;;9.88;6.32;;;26.20;91.30;;;;;;5112561;28;20024;-71
2021/07/04 09:37:43;;;;;;;12.48;6.68;;;26.60;91.40;;;;;;5111927;28;20035;-72
2021/07/04 09:40:12;;;;;;;9.57;5.95;;;26.70;90.60;;;;;;5112516;28;20039;-72
2021/07/04 09:42:54;;;;;;;10.40;6.10;;;26.80;90.40;;;;;;5112240;28;20016;-72
2021/07/04 09:45:21;;;;;;;11.38;5.97;;;27.00;89.50;;;;;;5112729;28;20047;-72
2021/07/04 09:47:57;;;;;;;12.23;6.25;;;27.00;89.80;;;;;;5112418;28;20127;-72
2021/07/04 09:50:24;;;;;;;13.15;6.97;;;26.90;90.20;;;;;;5111369;28;20084;-72
2021/07/04 09:53:01;;;;;;;12.30;6.18;;;26.90;89.10;;;;;;5112246;28;20093;-72
2021/07/04 09:55:28;;;;;;;11.03;6.73;;;27.10;89.50;;;;;;5112385;27;20490;-73
2021/07/04 09:58:02;;;;;;;11.77;7.27;;;27.30;88.10;;;;;;5112185;28;20286;-72
2021/07/04 10:00:30;;;;;;;12.77;7.22;;;27.10;87.40;;;;;;5112622;28;20031;-72
2021/07/04 10:03:14;;;;;;;8.35;5.75;;;27.00;86.90;;;;;;5112417;28;20032;-72
2021/07/04 10:05:55;;;;;;;10.30;6.05;;;27.20;87.40;;;;;;5112256;27;20027;-70
2021/07/04 10:08:38;;;;;;;7.80;5.50;;;27.20;85.50;;;;;;5111818;28;20028;-71
2021/07/04 10:11:12;;;;;;;10.45;5.43;;;27.40;84.30;;;;;;5112105;28;20109;-74
2021/07/04 10:13:40;;;;;;;7.55;5.97;;;27.40;84.20;;;;;;5111934;28;20062;-74
2021/07/04 10:16:08;;;;;;;10.40;5.65;;;27.60;84.10;;;;;;5112005;28;20036;-75
2021/07/04 10:18:36;;;;;;;8.75;5.38;;;27.60;83.60;;;;;;5111667;28;20441;-75
2021/07/04 10:21:02;;;;;;;10.15;5.65;;;27.50;83.00;;;;;;5112364;28;20188;-74
2021/07/04 10:23:28;;;;;;;7.50;6.13;;;27.70;82.60;;;;;;5111927;28;20050;-74
2021/07/04 10:25:56;;;;;;;7.25;5.65;;;27.70;81.40;;;;;;5110874;28;20024;-75
2021/07/04 10:28:33;;;;;;;8.13;5.78;;;27.60;78.80;;;;;;5110620;28;20049;-72
2021/07/04 10:31:03;;;;;;;8.80;5.22;;;27.50;80.10;;;;;;5112005;28;20036;-75
2021/07/04 10:33:34;;;;;;;8.23;5.70;;;27.40;80.90;;;;;;5112057;28;20036;-74
2021/07/04 10:36:15;;;;;;;7.93;5.70;;;27.30;80.30;;;;;;5111542;28;20130;-74
2021/07/04 10:38:54;;;;;;;7.47;5.38;;;27.50;79.10;;;;;;5111016;27;20032;-74
2021/07/04 10:41:28;;;;;;;6.38;5.38;;;27.40;80.40;;;;;;5111680;28;20089;-74
2021/07/04 10:44:02;;;;;;;8.95;5.07;;;27.40;79.60;;;;;;5111585;28;20050;-76
2021/07/04 10:46:46;;;;;;;15.82;5.90;;;27.60;78.50;;;;;;5111634;28;20307;-75
2021/07/04 10:49:20;;;;;;;7.30;5.10;;;27.80;78.60;;;;;;5111340;28;20051;-73
2021/07/04 10:51:59;;;;;;;12.35;4.97;;;27.90;77.60;;;;;;5111355;28;20035;-74
2021/07/04 10:54:52;;;;;;;7.95;5.30;;;27.90;78.10;;;;;;5111722;28;20028;-73
2021/07/04 10:57:34;;;;;;;12.63;4.82;;;27.90;77.30;;;;;;5107107;28;20062;-74
2021/07/04 10:59:59;;;;;;;6.82;4.57;;;27.90;74.40;;;;;;5111388;28;20036;-75
2021/07/04 11:02:40;;;;;;;7.47;4.75;;;27.80;71.50;;;;;;5111580;28;20031;-74
2021/07/04 11:05:10;;;;;;;8.20;4.68;;;27.80;72.50;;;;;;5109887;28;20119;-74
2021/07/04 11:07:54;;;;;;;5.57;4.53;;;27.60;71.70;;;;;;5111215;28;20118;-73
2021/07/04 11:10:28;;;;;;;9.77;7.45;;;27.70;72.40;;;;;;5110888;27;20027;-73
2021/07/04 11:13:14;;;;;;;6.35;4.70;;;27.60;68.40;;;;;;5110853;28;20437;-73
2021/07/04 11:15:41;;;;;;;5.57;4.40;;;27.60;70.00;;;;;;5098975;28;20075;-74
2021/07/04 11:18:12;;;;;;;8.00;4.60;;;27.80;69.70;;;;;;5111813;28;20085;-74
2021/07/04 11:20:42;;;;;;;10.27;5.18;;;27.80;70.40;;;;;;5110972;28;20468;-75
2021/07/04 11:23:21;;;;;;;5.72;4.43;;;27.90;69.60;;;;;;5109682;28;20378;-75
2021/07/04 11:25:52;;;;;;;6.22;4.57;;;27.90;68.30;;;;;;5110920;28;20039;-74
2021/07/04 11:28:20;;;;;;;9.25;5.00;;;27.90;68.00;;;;;;5110994;28;20457;-75
2021/07/04 11:30:54;;;;;;;8.07;5.68;;;27.90;71.10;;;;;;5111242;28;20453;-77
2021/07/04 11:33:35;;;;;;;10.57;5.32;;;27.90;72.20;;;;;;5110361;28;20028;-75
2021/07/04 11:36:16;;;;;;;5.55;4.45;;;27.70;68.10;;;;;;5111267;28;20069;-73
2021/07/04 11:38:51;;;;;;;6.88;4.65;;;27.50;68.30;;;;;;5110238;28;20372;-72
2021/07/04 11:41:44;;;;;;;6.38;3.72;;;27.50;69.20;;;;;;5110367;28;20043;-72
2021/07/04 11:44:15;;;;;;;6.68;4.13;;;27.70;70.30;;;;;;5110598;28;20047;-72
2021/07/04 11:46:43;;;;;;;6.57;4.15;;;27.80;69.00;;;;;;5110492;28;20493;-72
2021/07/04 11:49:18;;;;;;;;;;;27.80;69.80;;;;;;5111045;28;20035;-72
2021/07/04 11:51:52;;;;;;;7.57;4.53;;;27.80;69.20;;;;;;5110684;28;19915;-72
2021/07/04 11:54:29;;;;;;;10.02;4.80;;;27.80;70.30;;;;;;5111125;28;20068;-72
2021/07/04 11:59:59;;;;;;;7.82;4.15;;;27.70;75.30;;;;;;5112270;28;20034;-82
2021/07/04 12:02:25;;;;;;;8.07;5.13;;;27.40;70.40;;;;;;5114100;28;20071;-84
2021/07/04 12:04:51;;;;;;;9.88;4.78;;;27.50;72.00;;;;;;5115715;28;20023;-75
2021/07/04 12:07:22;;;;;;;8.13;5.07;;;27.40;71.40;;;;;;5114765;28;20573;-75
2021/07/04 12:09:53;;;;;;;7.05;4.72;;;27.30;73.90;;;;;;5114494;28;20019;-77
2021/07/04 12:12:27;;;;;;;6.80;4.40;;;27.40;71.40;;;;;;5114733;28;20012;-75
2021/07/04 12:14:54;;;;;;;7.15;5.03;;;27.40;70.20;;;;;;5114335;28;20515;-76
2021/07/04 12:17:23;;;;;;;10.27;4.90;;;27.40;71.30;;;;;;5114536;28;20036;-75
2021/07/04 12:20:13;;;;;;;4.97;4.30;;;27.40;71.00;;;;;;5114575;28;20035;-77
2021/07/04 12:22:49;;;;;;;5.53;4.45;;;27.50;70.20;;;;;;5114273;28;20036;-77
2021/07/04 12:25:21;;;;;;;9.80;7.60;;;27.50;69.60;;;;;;5114218;27;20623;-76
2021/07/04 12:27:50;;;;;;;6.45;4.82;;;27.40;68.30;;;;;;5113947;28;20024;-75
2021/07/04 12:30:22;;;;;;;10.27;5.00;;;27.30;68.80;;;;;;5114810;28;20047;-76
2021/07/04 12:32:50;;;;;;;7.47;5.05;;;27.30;70.30;;;;;;5112876;28;20032;-78
2021/07/04 12:35:25;;;;;;;8.23;4.90;;;27.30;70.90;;;;;;5113970;27;20031;-75
2021/07/04 12:37:52;;;;;;;5.35;4.05;;;27.30;71.50;;;;;;5112821;28;20040;-82
2021/07/04 12:40:31;;;;;;;4.70;4.18;;;27.10;70.50;;;;;;5112917;28;20100;-79
2021/07/04 12:43:10;;;;;;;5.00;4.50;;;27.30;70.40;;;;;;5114233;28;20047;-77
2021/07/04 12:45:41;;;;;;;6.63;4.15;;;27.20;67.70;;;;;;5113873;27;20101;-79